Terminal Aerodrome Forecast
Issued by NWS

Home | Current Version | Previous Version | Text Only | Print | Product List | Glossary On
Versions: 1 2 3 4 5 6 7 8 9 10 11 12 13 14 15 16 17
000
FTUS45 KRIW 252325
TAFCPR
TAF
KCPR 252325Z 2600/2624 32008KT P6SM VCTS FEW060CB BKN120
      TEMPO 2600/2602 VRB10G20KT 5SM -TSRA SCT035CB
     FM260400 08006KT P6SM SCT100
     FM261500 VRB05KT P6SM BKN060
     FM262000 03007KT P6SM SCT035 BKN050=

USA.gov is the U.S. government's official web portal to all federal, state and local government web resources and services.